sensor_id;sensor_type;location;lat;lon;timestamp;temperature;humidity
20141;DHT22;10231;47.702;9.826;2023-07-31T00:01:39;16.30;99.90
20141;DHT22;10231;47.702;9.826;2023-07-31T00:04:05;16.30;99.90
20141;DHT22;10231;47.702;9.826;2023-07-31T00:06:30;16.30;99.90
20141;DHT22;10231;47.702;9.826;2023-07-31T00:08:56;16.20;99.90
20141;DHT22;10231;47.702;9.826;2023-07-31T00:11:21;16.30;99.90
20141;DHT22;10231;47.702;9.826;2023-07-31T00:13:47;16.10;99.90
20141;DHT22;10231;47.702;9.826;2023-07-31T00:16:13;16.10;99.90
20141;DHT22;10231;47.702;9.826;2023-07-31T00:18:38;16.00;99.90
20141;DHT22;10231;47.702;9.826;2023-07-31T00:21:04;16.00;99.90
20141;DHT22;10231;47.702;9.826;2023-07-31T00:23:30;16.10;99.90
20141;DHT22;10231;47.702;9.826;2023-07-31T00:25:55;16.00;99.90
20141;DHT22;10231;47.702;9.826;2023-07-31T00:28:21;16.00;99.90
20141;DHT22;10231;47.702;9.826;2023-07-31T00:30:46;16.00;99.90
20141;DHT22;10231;47.702;9.826;2023-07-31T00:33:12;16.00;99.90
20141;DHT22;10231;47.702;9.826;2023-07-31T00:35:37;16.00;99.90
20141;DHT22;10231;47.702;9.826;2023-07-31T00:38:03;15.90;99.90
20141;DHT22;10231;47.702;9.826;2023-07-31T00:40:28;15.90;99.90
20141;DHT22;10231;47.702;9.826;2023-07-31T00:42:54;16.00;99.90
20141;DHT22;10231;47.702;9.826;2023-07-31T00:45:19;15.90;99.90
20141;DHT22;10231;47.702;9.826;2023-07-31T00:47:48;15.90;99.90
20141;DHT22;10231;47.702;9.826;2023-07-31T00:50:14;15.80;99.90
20141;DHT22;10231;47.702;9.826;2023-07-31T00:52:40;15.80;99.90
20141;DHT22;10231;47.702;9.826;2023-07-31T00:55:06;15.70;99.90
20141;DHT22;10231;47.702;9.826;2023-07-31T00:57:32;15.70;99.90
20141;DHT22;10231;47.702;9.826;2023-07-31T00:59:58;15.70;99.90
20141;DHT22;10231;47.702;9.826;2023-07-31T01:02:24;15.70;99.90
20141;DHT22;10231;47.702;9.826;2023-07-31T01:04:49;15.70;99.90
20141;DHT22;10231;47.702;9.826;2023-07-31T01:07:50;15.60;99.90
20141;DHT22;10231;47.702;9.826;2023-07-31T01:10:41;15.60;99.90
20141;DHT22;10231;47.702;9.826;2023-07-31T01:13:09;15.60;99.90
20141;DHT22;10231;47.702;9.826;2023-07-31T01:15:36;15.60;99.90
20141;DHT22;10231;47.702;9.826;2023-07-31T01:18:01;15.60;99.90
20141;DHT22;10231;47.702;9.826;2023-07-31T01:20:30;15.50;99.90
20141;DHT22;10231;47.702;9.826;2023-07-31T01:28:09;15.50;99.90
20141;DHT22;10231;47.702;9.826;2023-07-31T01:30:41;15.40;99.90
20141;DHT22;10231;47.702;9.826;2023-07-31T01:33:09;15.40;99.90
20141;DHT22;10231;47.702;9.826;2023-07-31T01:35:36;15.40;99.90
20141;DHT22;10231;47.702;9.826;2023-07-31T01:38:01;15.40;99.90
20141;DHT22;10231;47.702;9.826;2023-07-31T01:40:27;15.40;99.90
20141;DHT22;10231;47.702;9.826;2023-07-31T01:42:52;15.40;99.90
20141;DHT22;10231;47.702;9.826;2023-07-31T01:45:18;15.40;99.90
20141;DHT22;10231;47.702;9.826;2023-07-31T01:47:44;15.40;99.90
20141;DHT22;10231;47.702;9.826;2023-07-31T01:50:09;15.40;99.90
20141;DHT22;10231;47.702;9.826;2023-07-31T01:52:35;15.40;99.90
20141;DHT22;10231;47.702;9.826;2023-07-31T01:55:01;15.40;99.90
20141;DHT22;10231;47.702;9.826;2023-07-31T01:57:26;15.30;99.90
20141;DHT22;10231;47.702;9.826;2023-07-31T01:59:52;15.30;99.90
20141;DHT22;10231;47.702;9.826;2023-07-31T02:02:19;15.30;99.90
20141;DHT22;10231;47.702;9.826;2023-07-31T02:04:45;15.20;99.90
20141;DHT22;10231;47.702;9.826;2023-07-31T02:07:10;15.10;99.90
20141;DHT22;10231;47.702;9.826;2023-07-31T02:09:36;15.00;99.90
20141;DHT22;10231;47.702;9.826;2023-07-31T02:12:02;15.00;99.90
20141;DHT22;10231;47.702;9.826;2023-07-31T02:14:27;14.90;99.90
20141;DHT22;10231;47.702;9.826;2023-07-31T02:16:53;14.90;99.90
20141;DHT22;10231;47.702;9.826;2023-07-31T02:19:18;14.90;99.90
20141;DHT22;10231;47.702;9.826;2023-07-31T02:21:44;14.90;99.90
20141;DHT22;10231;47.702;9.826;2023-07-31T02:24:09;14.90;99.90
20141;DHT22;10231;47.702;9.826;2023-07-31T02:26:35;14.90;99.90
20141;DHT22;10231;47.702;9.826;2023-07-31T02:29:01;14.90;99.90
20141;DHT22;10231;47.702;9.826;2023-07-31T02:31:26;14.90;99.90
20141;DHT22;10231;47.702;9.826;2023-07-31T02:33:52;14.80;99.90
20141;DHT22;10231;47.702;9.826;2023-07-31T02:36:17;14.90;99.90
20141;DHT22;10231;47.702;9.826;2023-07-31T02:38:43;14.90;99.90
20141;DHT22;10231;47.702;9.826;2023-07-31T02:41:09;14.90;99.90
20141;DHT22;10231;47.702;9.826;2023-07-31T02:43:34;14.80;99.90
20141;DHT22;10231;47.702;9.826;2023-07-31T02:46:00;14.80;99.90
20141;DHT22;10231;47.702;9.826;2023-07-31T02:48:25;14.80;99.90
20141;DHT22;10231;47.702;9.826;2023-07-31T02:50:51;14.80;99.90
20141;DHT22;10231;47.702;9.826;2023-07-31T02:53:16;14.70;99.90
20141;DHT22;10231;47.702;9.826;2023-07-31T02:55:42;14.70;99.90
20141;DHT22;10231;47.702;9.826;2023-07-31T02:58:07;14.70;99.90
20141;DHT22;10231;47.702;9.826;2023-07-31T03:00:33;14.70;99.90
20141;DHT22;10231;47.702;9.826;2023-07-31T03:02:58;14.70;99.90
20141;DHT22;10231;47.702;9.826;2023-07-31T03:05:24;14.70;99.90
20141;DHT22;10231;47.702;9.826;2023-07-31T03:07:50;14.70;99.90
20141;DHT22;10231;47.702;9.826;2023-07-31T03:10:15;14.70;99.90
20141;DHT22;10231;47.702;9.826;2023-07-31T03:12:41;14.70;99.90
20141;DHT22;10231;47.702;9.826;2023-07-31T03:15:07;14.70;99.90
20141;DHT22;10231;47.702;9.826;2023-07-31T03:17:32;14.60;99.90
20141;DHT22;10231;47.702;9.826;2023-07-31T03:19:58;14.60;99.90
20141;DHT22;10231;47.702;9.826;2023-07-31T03:22:24;14.60;99.90
20141;DHT22;10231;47.702;9.826;2023-07-31T03:24:49;14.60;99.90
20141;DHT22;10231;47.702;9.826;2023-07-31T03:27:15;14.60;99.90
20141;DHT22;10231;47.702;9.826;2023-07-31T03:29:40;14.60;99.90
20141;DHT22;10231;47.702;9.826;2023-07-31T03:32:06;14.60;99.90
20141;DHT22;10231;47.702;9.826;2023-07-31T03:34:32;14.60;99.90
20141;DHT22;10231;47.702;9.826;2023-07-31T03:36:58;14.60;99.90
20141;DHT22;10231;47.702;9.826;2023-07-31T03:39:23;14.60;99.90
20141;DHT22;10231;47.702;9.826;2023-07-31T03:41:49;14.60;99.90
20141;DHT22;10231;47.702;9.826;2023-07-31T03:44:14;14.70;99.90
20141;DHT22;10231;47.702;9.826;2023-07-31T03:46:40;14.70;99.90
20141;DHT22;10231;47.702;9.826;2023-07-31T03:49:05;14.70;99.90
20141;DHT22;10231;47.702;9.826;2023-07-31T03:51:31;14.80;99.90
20141;DHT22;10231;47.702;9.826;2023-07-31T03:53:56;14.80;99.90
20141;DHT22;10231;47.702;9.826;2023-07-31T03:56:22;14.80;99.90
20141;DHT22;10231;47.702;9.826;2023-07-31T03:58:48;14.80;99.90
20141;DHT22;10231;47.702;9.826;2023-07-31T04:01:13;14.80;99.90
20141;DHT22;10231;47.702;9.826;2023-07-31T04:03:39;14.80;99.90
20141;DHT22;10231;47.702;9.826;2023-07-31T04:06:04;14.90;99.90
20141;DHT22;10231;47.702;9.826;2023-07-31T04:08:32;14.90;99.90
20141;DHT22;10231;47.702;9.826;2023-07-31T04:10:57;14.90;99.90
20141;DHT22;10231;47.702;9.826;2023-07-31T04:13:23;14.90;99.90
20141;DHT22;10231;47.702;9.826;2023-07-31T04:15:49;14.90;99.90
20141;DHT22;10231;47.702;9.826;2023-07-31T04:18:16;14.90;99.90
20141;DHT22;10231;47.702;9.826;2023-07-31T04:20:41;14.90;99.90
20141;DHT22;10231;47.702;9.826;2023-07-31T04:23:07;14.90;99.90
20141;DHT22;10231;47.702;9.826;2023-07-31T04:25:32;15.00;99.90
20141;DHT22;10231;47.702;9.826;2023-07-31T04:28:00;15.00;99.90
20141;DHT22;10231;47.702;9.826;2023-07-31T04:30:26;15.10;99.90
20141;DHT22;10231;47.702;9.826;2023-07-31T04:32:51;15.10;99.90
20141;DHT22;10231;47.702;9.826;2023-07-31T04:35:17;15.10;99.90
20141;DHT22;10231;47.702;9.826;2023-07-31T04:37:42;15.00;99.90
20141;DHT22;10231;47.702;9.826;2023-07-31T04:40:08;15.10;99.90
20141;DHT22;10231;47.702;9.826;2023-07-31T04:42:34;15.10;99.90
20141;DHT22;10231;47.702;9.826;2023-07-31T04:45:00;15.10;99.90
20141;DHT22;10231;47.702;9.826;2023-07-31T04:47:25;15.10;99.90
20141;DHT22;10231;47.702;9.826;2023-07-31T04:49:51;15.10;99.90
20141;DHT22;10231;47.702;9.826;2023-07-31T04:52:16;15.10;99.90
20141;DHT22;10231;47.702;9.826;2023-07-31T04:54:42;15.10;99.90
20141;DHT22;10231;47.702;9.826;2023-07-31T04:57:07;15.10;99.90
20141;DHT22;10231;47.702;9.826;2023-07-31T04:59:33;15.20;99.90
20141;DHT22;10231;47.702;9.826;2023-07-31T05:01:58;15.20;99.90
20141;DHT22;10231;47.702;9.826;2023-07-31T05:04:24;15.30;99.90
20141;DHT22;10231;47.702;9.826;2023-07-31T05:06:49;15.30;99.90
20141;DHT22;10231;47.702;9.826;2023-07-31T05:09:15;15.40;99.90
20141;DHT22;10231;47.702;9.826;2023-07-31T05:11:41;15.40;99.90
20141;DHT22;10231;47.702;9.826;2023-07-31T05:14:08;15.50;99.90
20141;DHT22;10231;47.702;9.826;2023-07-31T05:16:34;15.60;99.90
20141;DHT22;10231;47.702;9.826;2023-07-31T05:18:59;15.70;99.90
20141;DHT22;10231;47.702;9.826;2023-07-31T05:21:25;15.80;99.90
20141;DHT22;10231;47.702;9.826;2023-07-31T05:23:51;15.90;99.90
20141;DHT22;10231;47.702;9.826;2023-07-31T05:26:16;16.00;99.90
20141;DHT22;10231;47.702;9.826;2023-07-31T05:28:43;15.90;99.90
20141;DHT22;10231;47.702;9.826;2023-07-31T05:31:08;16.10;99.90
20141;DHT22;10231;47.702;9.826;2023-07-31T05:33:34;16.10;99.90
20141;DHT22;10231;47.702;9.826;2023-07-31T05:35:59;16.20;99.90
20141;DHT22;10231;47.702;9.826;2023-07-31T05:38:25;16.20;99.90
20141;DHT22;10231;47.702;9.826;2023-07-31T05:40:51;16.30;99.90
20141;DHT22;10231;47.702;9.826;2023-07-31T05:43:16;16.30;99.90
20141;DHT22;10231;47.702;9.826;2023-07-31T05:45:42;16.40;99.90
20141;DHT22;10231;47.702;9.826;2023-07-31T05:48:08;16.40;99.90
20141;DHT22;10231;47.702;9.826;2023-07-31T05:50:33;16.40;99.90
20141;DHT22;10231;47.702;9.826;2023-07-31T05:52:59;16.50;99.90
20141;DHT22;10231;47.702;9.826;2023-07-31T05:55:25;16.50;99.90
20141;DHT22;10231;47.702;9.826;2023-07-31T05:57:52;16.60;99.90
20141;DHT22;10231;47.702;9.826;2023-07-31T06:00:18;16.60;99.90
20141;DHT22;10231;47.702;9.826;2023-07-31T06:02:44;16.60;99.90
20141;DHT22;10231;47.702;9.826;2023-07-31T06:05:09;16.70;99.90
20141;DHT22;10231;47.702;9.826;2023-07-31T06:07:35;16.70;99.90
20141;DHT22;10231;47.702;9.826;2023-07-31T06:10:01;16.70;99.90
20141;DHT22;10231;47.702;9.826;2023-07-31T06:12:30;16.70;99.90
20141;DHT22;10231;47.702;9.826;2023-07-31T06:14:56;16.60;99.90
20141;DHT22;10231;47.702;9.826;2023-07-31T06:17:22;16.70;99.90
20141;DHT22;10231;47.702;9.826;2023-07-31T06:19:48;16.70;99.90
20141;DHT22;10231;47.702;9.826;2023-07-31T06:22:14;16.70;99.90
20141;DHT22;10231;47.702;9.826;2023-07-31T06:24:39;16.70;99.90
20141;DHT22;10231;47.702;9.826;2023-07-31T06:27:05;16.70;99.90
20141;DHT22;10231;47.702;9.826;2023-07-31T06:29:31;16.70;99.90
20141;DHT22;10231;47.702;9.826;2023-07-31T06:31:57;16.70;99.90
20141;DHT22;10231;47.702;9.826;2023-07-31T06:34:22;16.70;99.90
20141;DHT22;10231;47.702;9.826;2023-07-31T06:36:48;16.80;99.90
20141;DHT22;10231;47.702;9.826;2023-07-31T06:39:13;16.70;99.90
20141;DHT22;10231;47.702;9.826;2023-07-31T06:41:39;16.80;99.90
20141;DHT22;10231;47.702;9.826;2023-07-31T06:44:05;16.80;99.90
20141;DHT22;10231;47.702;9.826;2023-07-31T06:46:30;16.90;99.90
20141;DHT22;10231;47.702;9.826;2023-07-31T06:48:56;16.90;99.90
20141;DHT22;10231;47.702;9.826;2023-07-31T06:51:21;17.00;99.90
20141;DHT22;10231;47.702;9.826;2023-07-31T06:53:47;17.10;99.90
20141;DHT22;10231;47.702;9.826;2023-07-31T06:56:12;17.00;99.90
20141;DHT22;10231;47.702;9.826;2023-07-31T06:58:38;17.20;99.90
20141;DHT22;10231;47.702;9.826;2023-07-31T07:01:04;17.20;99.90
20141;DHT22;10231;47.702;9.826;2023-07-31T07:03:29;17.30;99.90
20141;DHT22;10231;47.702;9.826;2023-07-31T07:05:55;17.40;99.90
20141;DHT22;10231;47.702;9.826;2023-07-31T07:08:21;17.40;99.90
20141;DHT22;10231;47.702;9.826;2023-07-31T07:10:46;17.40;99.90
20141;DHT22;10231;47.702;9.826;2023-07-31T07:13:12;17.40;99.90
20141;DHT22;10231;47.702;9.826;2023-07-31T07:15:38;17.30;99.90
20141;DHT22;10231;47.702;9.826;2023-07-31T07:18:04;17.40;99.90
20141;DHT22;10231;47.702;9.826;2023-07-31T07:20:30;17.30;99.90
20141;DHT22;10231;47.702;9.826;2023-07-31T07:22:55;17.30;99.90
20141;DHT22;10231;47.702;9.826;2023-07-31T07:25:21;17.20;99.90
20141;DHT22;10231;47.702;9.826;2023-07-31T07:27:46;17.20;99.90
20141;DHT22;10231;47.702;9.826;2023-07-31T07:30:12;17.10;99.90
20141;DHT22;10231;47.702;9.826;2023-07-31T07:32:39;17.20;99.90
20141;DHT22;10231;47.702;9.826;2023-07-31T07:35:05;17.30;99.90
20141;DHT22;10231;47.702;9.826;2023-07-31T07:37:31;17.30;99.90
20141;DHT22;10231;47.702;9.826;2023-07-31T07:39:57;17.40;99.90
20141;DHT22;10231;47.702;9.826;2023-07-31T07:42:23;17.50;99.90
20141;DHT22;10231;47.702;9.826;2023-07-31T07:44:48;17.50;99.90
20141;DHT22;10231;47.702;9.826;2023-07-31T07:47:14;17.60;99.90
20141;DHT22;10231;47.702;9.826;2023-07-31T07:49:39;17.70;99.90
20141;DHT22;10231;47.702;9.826;2023-07-31T07:52:05;17.70;99.90
20141;DHT22;10231;47.702;9.826;2023-07-31T07:54:31;17.70;99.90
20141;DHT22;10231;47.702;9.826;2023-07-31T07:56:56;17.70;99.90
20141;DHT22;10231;47.702;9.826;2023-07-31T07:59:22;17.70;99.90
20141;DHT22;10231;47.702;9.826;2023-07-31T08:01:48;17.80;99.90
20141;DHT22;10231;47.702;9.826;2023-07-31T08:04:13;17.80;99.90
20141;DHT22;10231;47.702;9.826;2023-07-31T08:06:39;17.80;99.90
20141;DHT22;10231;47.702;9.826;2023-07-31T08:09:05;17.80;99.90
20141;DHT22;10231;47.702;9.826;2023-07-31T08:11:32;18.00;99.90
20141;DHT22;10231;47.702;9.826;2023-07-31T08:13:58;18.10;99.90
20141;DHT22;10231;47.702;9.826;2023-07-31T08:16:23;18.00;99.90
20141;DHT22;10231;47.702;9.826;2023-07-31T08:18:49;18.00;99.90
20141;DHT22;10231;47.702;9.826;2023-07-31T08:21:14;18.00;99.90
20141;DHT22;10231;47.702;9.826;2023-07-31T08:23:40;18.00;99.90
20141;DHT22;10231;47.702;9.826;2023-07-31T08:26:06;18.00;99.90
20141;DHT22;10231;47.702;9.826;2023-07-31T08:28:32;17.90;99.90
20141;DHT22;10231;47.702;9.826;2023-07-31T08:30:58;17.90;99.90
20141;DHT22;10231;47.702;9.826;2023-07-31T08:33:23;17.90;99.90
20141;DHT22;10231;47.702;9.826;2023-07-31T08:35:49;17.80;99.90
20141;DHT22;10231;47.702;9.826;2023-07-31T08:38:14;17.90;99.90
20141;DHT22;10231;47.702;9.826;2023-07-31T08:40:40;18.00;99.90
20141;DHT22;10231;47.702;9.826;2023-07-31T08:43:09;18.10;99.90
20141;DHT22;10231;47.702;9.826;2023-07-31T08:45:34;18.10;99.90
20141;DHT22;10231;47.702;9.826;2023-07-31T08:48:00;18.10;99.90
20141;DHT22;10231;47.702;9.826;2023-07-31T08:50:26;18.00;99.90
20141;DHT22;10231;47.702;9.826;2023-07-31T08:52:53;18.10;99.90
20141;DHT22;10231;47.702;9.826;2023-07-31T08:55:19;18.00;99.90
20141;DHT22;10231;47.702;9.826;2023-07-31T08:57:50;18.10;99.90
20141;DHT22;10231;47.702;9.826;2023-07-31T09:00:16;18.10;99.90
20141;DHT22;10231;47.702;9.826;2023-07-31T09:02:48;18.10;99.90
20141;DHT22;10231;47.702;9.826;2023-07-31T09:05:17;18.30;99.90
20141;DHT22;10231;47.702;9.826;2023-07-31T09:07:45;18.30;99.90
20141;DHT22;10231;47.702;9.826;2023-07-31T09:10:12;18.30;99.90
20141;DHT22;10231;47.702;9.826;2023-07-31T09:12:38;18.30;99.90
20141;DHT22;10231;47.702;9.826;2023-07-31T09:15:05;18.30;99.90
20141;DHT22;10231;47.702;9.826;2023-07-31T09:17:35;18.40;99.90
20141;DHT22;10231;47.702;9.826;2023-07-31T09:20:14;18.50;99.90
20141;DHT22;10231;47.702;9.826;2023-07-31T09:22:40;18.60;99.90
20141;DHT22;10231;47.702;9.826;2023-07-31T09:25:23;18.60;99.90
20141;DHT22;10231;47.702;9.826;2023-07-31T09:28:00;18.60;99.90
20141;DHT22;10231;47.702;9.826;2023-07-31T09:30:26;18.60;99.90
20141;DHT22;10231;47.702;9.826;2023-07-31T09:33:01;18.60;99.90
20141;DHT22;10231;47.702;9.826;2023-07-31T09:35:30;18.60;99.90
20141;DHT22;10231;47.702;9.826;2023-07-31T09:38:03;18.70;99.90
20141;DHT22;10231;47.702;9.826;2023-07-31T09:43:03;18.70;99.90
20141;DHT22;10231;47.702;9.826;2023-07-31T09:45:30;18.80;99.90
20141;DHT22;10231;47.702;9.826;2023-07-31T09:47:56;18.70;99.90
20141;DHT22;10231;47.702;9.826;2023-07-31T09:50:24;18.70;99.90
20141;DHT22;10231;47.702;9.826;2023-07-31T09:52:51;18.80;99.90
20141;DHT22;10231;47.702;9.826;2023-07-31T09:55:17;19.00;99.90
20141;DHT22;10231;47.702;9.826;2023-07-31T09:57:48;19.00;99.90
20141;DHT22;10231;47.702;9.826;2023-07-31T10:00:16;18.90;99.90
20141;DHT22;10231;47.702;9.826;2023-07-31T10:02:45;19.00;99.90
20141;DHT22;10231;47.702;9.826;2023-07-31T10:05:13;19.10;99.90
20141;DHT22;10231;47.702;9.826;2023-07-31T10:07:44;19.10;99.90
20141;DHT22;10231;47.702;9.826;2023-07-31T10:10:10;19.20;99.90
20141;DHT22;10231;47.702;9.826;2023-07-31T10:12:37;19.30;99.90
20141;DHT22;10231;47.702;9.826;2023-07-31T10:15:04;19.40;99.90
20141;DHT22;10231;47.702;9.826;2023-07-31T10:17:30;19.50;99.90
20141;DHT22;10231;47.702;9.826;2023-07-31T10:19:58;19.50;99.90
20141;DHT22;10231;47.702;9.826;2023-07-31T10:22:25;19.50;99.90
20141;DHT22;10231;47.702;9.826;2023-07-31T10:24:52;19.50;99.90
20141;DHT22;10231;47.702;9.826;2023-07-31T10:27:20;19.50;99.90
20141;DHT22;10231;47.702;9.826;2023-07-31T10:29:45;19.50;99.90
20141;DHT22;10231;47.702;9.826;2023-07-31T10:32:13;19.50;99.90
20141;DHT22;10231;47.702;9.826;2023-07-31T10:34:40;19.50;99.90
20141;DHT22;10231;47.702;9.826;2023-07-31T10:42:35;19.50;99.90
20141;DHT22;10231;47.702;9.826;2023-07-31T10:45:06;19.70;99.90
20141;DHT22;10231;47.702;9.826;2023-07-31T10:47:46;19.60;99.90
20141;DHT22;10231;47.702;9.826;2023-07-31T10:50:19;19.60;99.90
20141;DHT22;10231;47.702;9.826;2023-07-31T10:52:53;19.60;99.90
20141;DHT22;10231;47.702;9.826;2023-07-31T10:55:38;19.70;99.90
20141;DHT22;10231;47.702;9.826;2023-07-31T10:58:19;19.70;99.90
20141;DHT22;10231;47.702;9.826;2023-07-31T11:00:45;19.70;99.90
20141;DHT22;10231;47.702;9.826;2023-07-31T11:03:16;19.80;99.90
20141;DHT22;10231;47.702;9.826;2023-07-31T11:08:18;19.70;99.90
20141;DHT22;10231;47.702;9.826;2023-07-31T11:10:45;19.80;99.90
20141;DHT22;10231;47.702;9.826;2023-07-31T11:13:11;19.80;99.90
20141;DHT22;10231;47.702;9.826;2023-07-31T11:15:37;19.90;99.90
20141;DHT22;10231;47.702;9.826;2023-07-31T11:18:03;19.90;99.90
20141;DHT22;10231;47.702;9.826;2023-07-31T11:20:34;20.00;99.90
20141;DHT22;10231;47.702;9.826;2023-07-31T11:23:02;20.00;99.90
20141;DHT22;10231;47.702;9.826;2023-07-31T11:25:31;20.10;99.90
20141;DHT22;10231;47.702;9.826;2023-07-31T11:28:01;20.20;99.90
20141;DHT22;10231;47.702;9.826;2023-07-31T11:30:28;20.10;99.90
20141;DHT22;10231;47.702;9.826;2023-07-31T11:32:55;20.10;99.90
20141;DHT22;10231;47.702;9.826;2023-07-31T11:35:21;20.00;99.90
20141;DHT22;10231;47.702;9.826;2023-07-31T11:37:47;20.00;99.90
20141;DHT22;10231;47.702;9.826;2023-07-31T11:40:14;20.30;99.90
20141;DHT22;10231;47.702;9.826;2023-07-31T11:42:40;20.40;99.90
20141;DHT22;10231;47.702;9.826;2023-07-31T11:45:07;20.40;99.90
20141;DHT22;10231;47.702;9.826;2023-07-31T11:50:01;20.50;99.90
20141;DHT22;10231;47.702;9.826;2023-07-31T11:52:34;20.50;99.90
20141;DHT22;10231;47.702;9.826;2023-07-31T11:55:01;20.40;99.90
20141;DHT22;10231;47.702;9.826;2023-07-31T11:57:28;20.30;99.90
20141;DHT22;10231;47.702;9.826;2023-07-31T11:59:54;20.40;99.90
20141;DHT22;10231;47.702;9.826;2023-07-31T12:02:20;20.50;99.90
20141;DHT22;10231;47.702;9.826;2023-07-31T12:04:46;20.60;99.90
20141;DHT22;10231;47.702;9.826;2023-07-31T12:07:12;20.60;99.90
20141;DHT22;10231;47.702;9.826;2023-07-31T12:09:38;20.70;99.90
20141;DHT22;10231;47.702;9.826;2023-07-31T12:12:08;20.70;99.90
20141;DHT22;10231;47.702;9.826;2023-07-31T12:14:33;20.90;99.90
20141;DHT22;10231;47.702;9.826;2023-07-31T12:17:00;21.10;99.90
20141;DHT22;10231;47.702;9.826;2023-07-31T12:19:29;21.10;99.90
20141;DHT22;10231;47.702;9.826;2023-07-31T12:21:56;21.00;99.90
20141;DHT22;10231;47.702;9.826;2023-07-31T12:24:21;21.00;99.90
20141;DHT22;10231;47.702;9.826;2023-07-31T12:26:48;21.10;99.90
20141;DHT22;10231;47.702;9.826;2023-07-31T12:29:14;21.20;99.90
20141;DHT22;10231;47.702;9.826;2023-07-31T12:31:43;21.10;99.90
20141;DHT22;10231;47.702;9.826;2023-07-31T12:34:16;21.20;99.90
20141;DHT22;10231;47.702;9.826;2023-07-31T12:36:43;21.30;99.90
20141;DHT22;10231;47.702;9.826;2023-07-31T12:39:09;21.30;99.90
20141;DHT22;10231;47.702;9.826;2023-07-31T12:41:34;21.40;99.90
20141;DHT22;10231;47.702;9.826;2023-07-31T12:44:00;21.40;99.90
20141;DHT22;10231;47.702;9.826;2023-07-31T12:46:25;21.30;99.90
20141;DHT22;10231;47.702;9.826;2023-07-31T12:48:51;21.30;99.90
20141;DHT22;10231;47.702;9.826;2023-07-31T12:51:16;21.20;99.90
20141;DHT22;10231;47.702;9.826;2023-07-31T12:53:42;21.20;99.90
20141;DHT22;10231;47.702;9.826;2023-07-31T12:56:08;21.20;99.90
20141;DHT22;10231;47.702;9.826;2023-07-31T12:58:34;21.20;99.90
20141;DHT22;10231;47.702;9.826;2023-07-31T13:00:59;21.20;99.90
20141;DHT22;10231;47.702;9.826;2023-07-31T13:03:25;21.20;99.90
20141;DHT22;10231;47.702;9.826;2023-07-31T13:05:50;21.30;99.90
20141;DHT22;10231;47.702;9.826;2023-07-31T13:08:17;21.30;99.90
20141;DHT22;10231;47.702;9.826;2023-07-31T13:10:43;21.50;99.90
20141;DHT22;10231;47.702;9.826;2023-07-31T13:13:09;21.60;99.90
20141;DHT22;10231;47.702;9.826;2023-07-31T13:15:35;21.70;99.90
20141;DHT22;10231;47.702;9.826;2023-07-31T13:18:01;21.80;99.90
20141;DHT22;10231;47.702;9.826;2023-07-31T13:20:26;21.80;99.90
20141;DHT22;10231;47.702;9.826;2023-07-31T13:22:52;21.80;99.90
20141;DHT22;10231;47.702;9.826;2023-07-31T13:25:17;21.80;99.90
20141;DHT22;10231;47.702;9.826;2023-07-31T13:27:43;21.80;99.90
20141;DHT22;10231;47.702;9.826;2023-07-31T13:30:09;21.80;99.90
20141;DHT22;10231;47.702;9.826;2023-07-31T13:32:34;21.80;99.90
20141;DHT22;10231;47.702;9.826;2023-07-31T13:35:05;21.90;99.90
20141;DHT22;10231;47.702;9.826;2023-07-31T13:37:31;22.00;99.90
20141;DHT22;10231;47.702;9.826;2023-07-31T13:39:56;22.30;99.90
20141;DHT22;10231;47.702;9.826;2023-07-31T13:42:22;22.50;99.90
20141;DHT22;10231;47.702;9.826;2023-07-31T13:44:47;22.70;99.90
20141;DHT22;10231;47.702;9.826;2023-07-31T13:47:13;22.90;99.90
20141;DHT22;10231;47.702;9.826;2023-07-31T13:49:38;23.00;99.90
20141;DHT22;10231;47.702;9.826;2023-07-31T13:52:04;23.00;99.90
20141;DHT22;10231;47.702;9.826;2023-07-31T13:54:30;23.00;99.90
20141;DHT22;10231;47.702;9.826;2023-07-31T13:56:56;23.00;99.90
20141;DHT22;10231;47.702;9.826;2023-07-31T13:59:21;22.90;99.90
20141;DHT22;10231;47.702;9.826;2023-07-31T14:01:47;23.00;99.90
20141;DHT22;10231;47.702;9.826;2023-07-31T14:04:13;23.10;99.70
20141;DHT22;10231;47.702;9.826;2023-07-31T14:06:39;23.10;99.90
20141;DHT22;10231;47.702;9.826;2023-07-31T14:09:04;22.90;99.90
20141;DHT22;10231;47.702;9.826;2023-07-31T14:11:31;22.90;99.90
20141;DHT22;10231;47.702;9.826;2023-07-31T14:13:57;22.90;99.90
20141;DHT22;10231;47.702;9.826;2023-07-31T14:16:22;22.90;99.60
20141;DHT22;10231;47.702;9.826;2023-07-31T14:18:48;22.80;99.70
20141;DHT22;10231;47.702;9.826;2023-07-31T14:21:14;22.70;99.90
20141;DHT22;10231;47.702;9.826;2023-07-31T14:23:40;22.80;99.90
20141;DHT22;10231;47.702;9.826;2023-07-31T14:26:06;23.00;99.90
20141;DHT22;10231;47.702;9.826;2023-07-31T14:28:31;23.20;99.90
20141;DHT22;10231;47.702;9.826;2023-07-31T14:30:57;23.20;99.90
20141;DHT22;10231;47.702;9.826;2023-07-31T14:33:23;23.30;99.90
20141;DHT22;10231;47.702;9.826;2023-07-31T14:35:48;23.40;99.90
20141;DHT22;10231;47.702;9.826;2023-07-31T14:38:14;23.60;99.60
20141;DHT22;10231;47.702;9.826;2023-07-31T14:40:40;23.50;99.40
20141;DHT22;10231;47.702;9.826;2023-07-31T14:43:05;23.50;98.90
20141;DHT22;10231;47.702;9.826;2023-07-31T14:45:31;23.60;98.20
20141;DHT22;10231;47.702;9.826;2023-07-31T14:47:56;23.80;99.00
20141;DHT22;10231;47.702;9.826;2023-07-31T14:50:22;23.90;98.60
20141;DHT22;10231;47.702;9.826;2023-07-31T14:52:48;24.10;97.60
20141;DHT22;10231;47.702;9.826;2023-07-31T14:55:14;24.30;97.50
20141;DHT22;10231;47.702;9.826;2023-07-31T14:57:40;24.30;96.90
20141;DHT22;10231;47.702;9.826;2023-07-31T15:00:06;24.20;96.80
20141;DHT22;10231;47.702;9.826;2023-07-31T15:02:34;24.10;96.70
20141;DHT22;10231;47.702;9.826;2023-07-31T15:05:00;24.10;97.50
20141;DHT22;10231;47.702;9.826;2023-07-31T15:07:25;24.20;97.70
20141;DHT22;10231;47.702;9.826;2023-07-31T15:09:51;24.00;96.70
20141;DHT22;10231;47.702;9.826;2023-07-31T15:12:17;23.90;96.90
20141;DHT22;10231;47.702;9.826;2023-07-31T15:14:43;24.00;97.00
20141;DHT22;10231;47.702;9.826;2023-07-31T15:17:08;24.00;96.00
20141;DHT22;10231;47.702;9.826;2023-07-31T15:19:34;23.90;96.00
20141;DHT22;10231;47.702;9.826;2023-07-31T15:22:02;23.80;96.40
20141;DHT22;10231;47.702;9.826;2023-07-31T15:24:28;23.90;96.50
20141;DHT22;10231;47.702;9.826;2023-07-31T15:26:54;23.90;96.30
20141;DHT22;10231;47.702;9.826;2023-07-31T15:29:20;24.10;96.40
20141;DHT22;10231;47.702;9.826;2023-07-31T15:31:46;24.10;96.10
20141;DHT22;10231;47.702;9.826;2023-07-31T15:34:13;24.10;96.50
20141;DHT22;10231;47.702;9.826;2023-07-31T15:36:39;24.20;96.30
20141;DHT22;10231;47.702;9.826;2023-07-31T15:39:05;24.10;95.60
20141;DHT22;10231;47.702;9.826;2023-07-31T15:41:30;24.10;95.60
20141;DHT22;10231;47.702;9.826;2023-07-31T15:43:56;23.90;95.60